Warrensburg, MO (64093)

10:25 PM CDT on September 20, 2014 (GMT -0500)
Downtown | Change Station
CLOSE
Current Station
Personal Weather Station
Location: Warrensburg, MO
Elevation: 856 ft
Nearby Weather Stations

Elev 856 ft 38.76 °N, 93.74 °W | Updated 2 minutes ago

Partly Cloudy
Partly Cloudy
73.4 °F
Feels Like 73 °F
N
4.7
Wind Variable Wind from SW

Today
High -- | Low -- °F
--% Chance of Precip.
Yesterday
High -- | Low -- °F
Precip. -- in
7:00 AM 7:15 PM
Waning Crescent, 9% visible
Pressure 29.95 in
Visibility 10.0 miles
Clouds Scattered Clouds 3900 ft
Mostly Cloudy 7000 ft
Heat Index 73 °F
Dew Point 68 °F
Humidity 82%
Rainfall 0.00 in
Snow Depth Not available.
UV 0 out of 12
Pollen 6.50 out of 12
Air Quality Not available.
Flu Activity Not available.
METAR KRCM 210235Z AUTO 21004KT 10SM SCT039 BKN070 22/21 A2995 RMK AO2

More Conditions Fewer Conditions

Pressure 29.95 in
Visibility 10.0 miles
Clouds Scattered Clouds 3900 ft
Mostly Cloudy 7000 ft
Heat Index 73 °F
Dew Point 68 °F
Humidity 82%
Rainfall 0.00 in
Snow Depth Not available.
UV 0 out of 12
Pollen 6.50 out of 12
Air Quality Not available.
Flu Activity Not available.
METAR KRCM 210235Z AUTO 21004KT 10SM SCT039 BKN070 22/21 A2995 RMK AO2

More Conditions Fewer Conditions

10-Day Weather Forecast

Almanac

Astronomy

Sep. 20, 2014 Rise Set
Actual Time 7:00 AM CDT 7:15 PM CDT
Civil Twilight 6:34 AM CDT 7:41 PM CDT
Nautical Twilight 6:03 AM CDT 8:12 PM CDT
Astronomical Twilight 5:31 AM CDT 8:44 PM CDT
Moon 3:42 AM CDT (9/20) 5:17 PM CDT (9/20)
Length of Visible Light 13h 07m
Length of Day
12h 14m
Tomorrow will be 2m 30s shorter.
Waning Crescent, 9% of the Moon is Illuminated
Today
Waning Crescent
Sep 24
New
Oct 1
First Quarter
Oct 8
Full
Oct 15
Last Quarter

Today's Extremes

State Highs State Lows

Community

WunderPhotos

Upload Photos

1,755,070 photos uploaded!

WunderBlogs® & News

Nearby

Snow Depth

Station Depth Elevation
No new snow has been reported.

Earthquake Activity

City Distance Mag. Time & Date
No recent earthquake activity has been reported nearby.
Minimum magnitude displayed is 2.5.

Coastal Water Temperatures

Place Temperature
No Stations Reporting

Nearby Weather Stations